Station Historical Data
Daily Summary for May 20, 2017 Units:  Metric    English   Both
« Previous Day
Next Day »
Daily Weekly Monthly Yearly Custom
  High: Low: Average:
Temperature: 31.1 °C 19.7 °C 23.9 °C
Dew Point: 21 °C 17.2 °C 18.7 °C
Humidity: 92% 48% 74%
Wind Speed: 1.6km/h 0km/h 0.2km/h
Wind Gust: 12.9km/h - -
Wind- - WNW
Pressure: 1019.2 hPa 1015.5 hPa -
Precipitation: 3.81 mm    
Historical Graphs
 
 
Tabular Data for May 20, 2017
Time Temperature Dew Point Pressure Wind Wind Speed Wind Gust Humidity Rainfall Rate (Hourly) solar Conditions
00:00 23.8 °C 18 °C 1018.2 hPa Calm     70% 0 mm WeatherDisplay:10.37 W/m2 SCT
00:15 23.4 °C 18.1 °C 1018.2 hPa Calm     72% 0 mm WeatherDisplay:10.37 W/m2 SCT
00:30 23.1 °C 18.2 °C 1018.2 hPa Calm     74% 0 mm WeatherDisplay:10.37 W/m2 SCT
00:45 22.8 °C 18.2 °C 1018.2 hPa Calm     75% 0 mm WeatherDisplay:10.37 W/m2 SCT
01:00 22.6 °C 18.1 °C 1017.8 hPa Calm     76% 0 mm WeatherDisplay:10.37 W/m2 SCT
01:15 22.3 °C 17.9 °C 1018.2 hPa Calm     76% 0 mm WeatherDisplay:10.37 W/m2 SCT
01:30 22.1 °C 17.8 °C 1017.8 hPa Calm     77% 0 mm WeatherDisplay:10.37 W/m2 SCT
01:45 21.4 °C 17.2 °C 1018.2 hPa Calm     77% 0 mm WeatherDisplay:10.37 W/m2 SCT
02:00 21.4 °C 17.2 °C 1017.8 hPa Calm     77% 0 mm WeatherDisplay:10.37 W/m2 SCT
02:15 21.4 °C 17.2 °C 1017.8 hPa Calm     77% 0 mm WeatherDisplay:10.37 W/m2 SCT
02:30 21.4 °C 17.2 °C 1017.8 hPa Calm     77% 0 mm WeatherDisplay:10.37 W/m2 SCT
02:45 21.4 °C 17.2 °C 1017.8 hPa Calm     77% 0 mm WeatherDisplay:10.37 W/m2 SCT
03:00 21.4 °C 17.2 °C 1017.8 hPa Calm     77% 0 mm WeatherDisplay:10.37 W/m2 SCT
03:15 21.4 °C 17.2 °C 1017.8 hPa Calm     77% 0 mm WeatherDisplay:10.37 W/m2 SCT
03:30 21.4 °C 17.2 °C 1017.8 hPa Calm     77% 0 mm WeatherDisplay:10.37 W/m2 SCT
03:45 21.4 °C 17.2 °C 1017.8 hPa Calm     77% 0 mm WeatherDisplay:10.37 W/m2 SCT
04:00 21.4 °C 17.2 °C 1017.8 hPa Calm     77% 0 mm WeatherDisplay:10.37 W/m2 SCT
04:15 21.4 °C 17.2 °C 1017.8 hPa Calm     77% 0 mm WeatherDisplay:10.37 W/m2 SCT
04:30 21.4 °C 17.2 °C 1017.8 hPa Calm     77% 0 mm WeatherDisplay:10.37 W/m2 SCT
04:45 21.4 °C 17.2 °C 1017.8 hPa Calm     77% 0 mm WeatherDisplay:10.37 W/m2 SCT
05:00 21.4 °C 17.2 °C 1018.2 hPa Calm     77% 0 mm WeatherDisplay:10.37 W/m2 SCT
05:15 21.4 °C 17.2 °C 1018.2 hPa Calm     77% 0 mm WeatherDisplay:10.37 W/m2 SCT
05:30 21.4 °C 17.2 °C 1018.2 hPa Calm     77% 0 mm WeatherDisplay:10.37 W/m2 SCT
05:45 21.4 °C 17.2 °C 1018.5 hPa Calm     77% 0 mm WeatherDisplay:10.37 W/m2 SCT
06:00 21.4 °C 17.2 °C 1018.5 hPa Calm     77% 0 mm WeatherDisplay:10.37 W/m2 SCT
06:15 21.4 °C 17.2 °C 1018.5 hPa Calm     77% 0 mm WeatherDisplay:10.37 W/m2 SCT
06:30 21.4 °C 17.2 °C 1018.5 hPa Calm     77% 0 mm WeatherDisplay:10.37 W/m2 SCT
06:45 21.4 °C 17.2 °C 1018.8 hPa Calm     77% 0 mm WeatherDisplay:10.37 W/m2 SCT
07:00 21.4 °C 17.2 °C 1018.8 hPa Calm     77% 0 mm WeatherDisplay:10.37 W/m2 SCT
07:15 21.4 °C 17.2 °C 1018.8 hPa Calm     77% 0 mm WeatherDisplay:10.37 W/m2 SCT
07:30 21.4 °C 17.2 °C 1018.8 hPa Calm     77% 0 mm WeatherDisplay:10.37 W/m2 SCT
07:45 19.7 °C 17.7 °C 1019.2 hPa Calm     88% 0 mm WeatherDisplay:10.37 W/m2 SCT
08:00 20.7 °C 18.4 °C 1019.2 hPa Calm   1.6 km/h 87% 0 mm WeatherDisplay:10.37 W/m2 SCT
08:15 21.4 °C 18.8 °C 1019.2 hPa Calm   1.6 km/h 85% 0 mm WeatherDisplay:10.37 W/m2 SCT
08:30 21.9 °C 19.1 °C 1018.8 hPa Calm   1.6 km/h 84% 0 mm WeatherDisplay:10.37 W/m2 SCT
08:45 22.4 °C 19.3 °C 1018.8 hPa Calm   1.6 km/h 83% 0 mm WeatherDisplay:10.37 W/m2 SCT
09:00 22.9 °C 19.7 °C 1019.2 hPa NW 1.6 km/h 3.2 km/h 82% 0 mm WeatherDisplay:10.37 W/m2 SCT
09:15 23.4 °C 20.2 °C 1019.2 hPa Calm   3.2 km/h 82% 0 mm WeatherDisplay:10.37 W/m2 SCT
09:30 23.9 °C 20.1 °C 1018.8 hPa Calm   3.2 km/h 79% 0 mm WeatherDisplay:10.37 W/m2 SCT
09:45 24.6 °C 20.3 °C 1018.8 hPa Calm   3.2 km/h 77% 0 mm WeatherDisplay:10.37 W/m2 SCT
10:00 25.3 °C 21 °C 1018.8 hPa Calm   3.2 km/h 77% 0 mm WeatherDisplay:10.37 W/m2 SCT
10:15 26.4 °C 20.9 °C 1018.8 hPa Calm     72% 0 mm WeatherDisplay:10.37 W/m2 SCT
10:30 26.9 °C 21 °C 1018.8 hPa Calm     70% 0 mm WeatherDisplay:10.37 W/m2 SCT
10:45 27.5 °C 20.8 °C 1018.5 hPa Calm   1.6 km/h 67% 0 mm WeatherDisplay:10.37 W/m2 SCT
11:00 27.8 °C 20.6 °C 1018.8 hPa West 1.6 km/h 3.2 km/h 65% 0 mm WeatherDisplay:10.37 W/m2 SCT
11:15 28.1 °C 20.9 °C 1018.8 hPa Calm   3.2 km/h 65% 0 mm WeatherDisplay:10.37 W/m2 SCT
11:30 28.4 °C 20.2 °C 1018.8 hPa Calm   3.2 km/h 61% 0 mm WeatherDisplay:10.37 W/m2 SCT
11:45 28.7 °C 20.1 °C 1018.8 hPa Calm   3.2 km/h 60% 0 mm WeatherDisplay:10.37 W/m2 SCT
12:00 29.1 °C 19.9 °C 1018.8 hPa NW 1.6 km/h 4.8 km/h 58% 0 mm WeatherDisplay:10.37 W/m2 SCT
12:15 29.2 °C 19.5 °C 1019.2 hPa Calm   3.2 km/h 56% 0 mm WeatherDisplay:10.37 W/m2 SCT
12:30 29.8 °C 18.9 °C 1018.8 hPa Calm   4.8 km/h 52% 0 mm WeatherDisplay:10.37 W/m2 SCT
12:45 30.2 °C 20.2 °C 1018.8 hPa Calm   3.2 km/h 55% 0 mm WeatherDisplay:10.37 W/m2 SCT
13:00 30.7 °C 19.1 °C 1018.8 hPa WNW 1.6 km/h 8 km/h 50% 0 mm WeatherDisplay:10.37 W/m2 SCT
13:15 30.4 °C 18.9 °C 1018.8 hPa Calm   3.2 km/h 50% 0 mm WeatherDisplay:10.37 W/m2 SCT
13:30 30.7 °C 19.7 °C 1018.8 hPa Calm   3.2 km/h 52% 0 mm WeatherDisplay:10.37 W/m2 SCT
13:45 30.6 °C 19.3 °C 1018.5 hPa Calm   3.2 km/h 51% 0 mm WeatherDisplay:10.37 W/m2 SCT
14:00 30.6 °C 19.6 °C 1018.2 hPa Calm   4.8 km/h 52% 0 mm WeatherDisplay:10.37 W/m2 SCT
14:15 31.1 °C 18.8 °C 1017.8 hPa Calm   4.8 km/h 48% 0 mm WeatherDisplay:10.37 W/m2 SCT
14:30 30.6 °C 18.6 °C 1017.5 hPa Calm   3.2 km/h 49% 0 mm WeatherDisplay:10.37 W/m2 SCT
14:45 30.1 °C 18.8 °C 1017.2 hPa Calm   3.2 km/h 51% 0 mm WeatherDisplay:10.37 W/m2 SCT
15:00 30.1 °C 18.8 °C 1016.8 hPa Calm   1.6 km/h 51% 0 mm WeatherDisplay:10.37 W/m2 SCT
15:15 30.1 °C 19.1 °C 1016.5 hPa Calm   1.6 km/h 52% 0 mm WeatherDisplay:10.37 W/m2 SCT
15:30 30.1 °C 19.2 °C 1016.5 hPa Calm   3.2 km/h 52% 0 mm WeatherDisplay:10.37 W/m2 SCT
15:45 30.4 °C 19.2 °C 1016.5 hPa Calm   3.2 km/h 51% 0 mm WeatherDisplay:10.37 W/m2 SCT
16:00 29.7 °C 19.4 °C 1016.1 hPa Calm   1.6 km/h 54% 0 mm WeatherDisplay:10.37 W/m2 SCT
16:15 29.9 °C 20.2 °C 1016.1 hPa NW 1.6 km/h 4.8 km/h 56% 0 mm WeatherDisplay:10.37 W/m2 SCT
16:30 30 °C 20 °C 1015.8 hPa WNW 1.6 km/h 4.8 km/h 55% 0 mm WeatherDisplay:10.37 W/m2 SCT
16:45 30 °C 19.7 °C 1015.5 hPa Calm   4.8 km/h 54% 0 mm WeatherDisplay:10.37 W/m2 SCT
17:00 29.9 °C 19.6 °C 1015.8 hPa Calm   4.8 km/h 54% 0 mm WeatherDisplay:10.37 W/m2 SCT
17:45 28.4 °C 20.2 °C 1016.1 hPa Calm   3.2 km/h 61% 0 mm WeatherDisplay:10.37 W/m2 SCT
18:00 28.1 °C 20.3 °C 1015.8 hPa Calm   3.2 km/h 63% 0 mm WeatherDisplay:10.37 W/m2 SCT
18:15 27.8 °C 20.4 °C 1015.5 hPa NW 1.6 km/h 8 km/h 64% 0 mm WeatherDisplay:10.37 W/m2 SCT
18:30 27.6 °C 20.4 °C 1016.1 hPa Calm   8 km/h 65% 0 mm WeatherDisplay:10.37 W/m2 SCT
18:45 23.6 °C 19.6 °C 1017.2 hPa NW 1.6 km/h 12.9 km/h 78% 2.03 mm WeatherDisplay:10.37 W/m2 RA
19:00 21.4 °C 18.8 °C 1017.2 hPa Calm   3.2 km/h 85% 1.27 mm WeatherDisplay:10.37 W/m2 SCT
19:15 20.9 °C 18.9 °C 1016.8 hPa Calm   3.2 km/h 88% 0 mm WeatherDisplay:10.37 W/m2 SCT
19:30 20.6 °C 18.7 °C 1016.8 hPa Calm   1.6 km/h 89% 0 mm WeatherDisplay:10.37 W/m2 SCT
19:45 20.3 °C 18.4 °C 1017.5 hPa Calm     89% 0 mm WeatherDisplay:10.37 W/m2 SCT
20:00 20.1 °C 18.2 °C 1017.8 hPa Calm     89% 0 mm WeatherDisplay:10.37 W/m2 SCT
20:15 20.1 °C 18.6 °C 1018.2 hPa Calm     91% 0 mm WeatherDisplay:10.37 W/m2 SCT
20:30 20.1 °C 18.6 °C 1018.2 hPa Calm     91% 0 mm WeatherDisplay:10.37 W/m2 SCT
20:45 20.1 °C 18.6 °C 1018.2 hPa Calm     91% 0 mm WeatherDisplay:10.37 W/m2 SCT
21:00 20.1 °C 18.6 °C 1018.2 hPa Calm     91% 0 mm WeatherDisplay:10.37 W/m2 SCT
21:15 20.1 °C 18.6 °C 1018.8 hPa Calm     91% 0 mm WeatherDisplay:10.37 W/m2 SCT
21:40 20.1 °C 18.7 °C 1019.2 hPa Calm     92% 0 mm WeatherDisplay:10.37 W/m2 SCT
21:50 20 °C 18.5 °C 1019.2 hPa Calm     91% 0 mm WeatherDisplay:10.37 W/m2 SCT
22:00 20 °C 18.7 °C 1019.2 hPa Calm     92% 0 mm WeatherDisplay:10.37 W/m2 RA
22:10 20 °C 18.6 °C 1018.8 hPa Calm     92% 0.25 mm WeatherDisplay:10.37 W/m2 SCT
22:20 19.9 °C 18.6 °C 1018.8 hPa Calm     92% 0 mm WeatherDisplay:10.37 W/m2 SCT
22:30 19.9 °C 18.6 °C 1019.2 hPa Calm     92% 0 mm WeatherDisplay:10.37 W/m2 SCT
22:40 20 °C 18.7 °C 1019.2 hPa Calm     92% 0 mm WeatherDisplay:10.37 W/m2 SCT
22:50 20 °C 18.7 °C 1019.2 hPa Calm   1.6 km/h 92% 0 mm WeatherDisplay:10.37 W/m2 SCT
23:00 19.9 °C 18.6 °C 1019.2 hPa Calm     92% 0 mm WeatherDisplay:10.37 W/m2 SCT
23:10 20 °C 18.7 °C 1019.2 hPa Calm     92% 0.25 mm WeatherDisplay:10.37 W/m2 SCT
23:20 19.9 °C 18.6 °C 1019.2 hPa Calm     92% 0 mm WeatherDisplay:10.37 W/m2 SCT
23:30 19.9 °C 18.6 °C 1018.8 hPa Calm     92% 0 mm WeatherDisplay:10.37 W/m2 SCT
23:40 19.9 °C 18.6 °C 1018.8 hPa Calm     92% 0 mm WeatherDisplay:10.37 W/m2 SCT
23:50 19.9 °C 18.6 °C 1018.5 hPa Calm   1.6 km/h 92% 0 mm WeatherDisplay:10.37 W/m2 SCT
Piedmont Bend
Compliments of Weather Underground - 4 mb